Main page
METAR-TAF:

METAR-TAF

Airports :

Ibadan, Nigeria

Ibadan Airport

latitude: 07-26N, longitude: 003-54E, elevation: 234 m

METAR: missing

Time: 03:38 (02:38 UTC)

Forecast

The report was made 4 hours and 48 minutes ago, at 21:50 UTC
Forecast valid from 22 at 00 UTC to 23 at 06 UTC
Wind 2 kt from variable directions
Visibility: 8000 m
Few clouds at a height of 1100 ft
Temporary
from 22 at 05 UTC to 22 at 08 UTC
Visibility: 5000 m
mist
Probability 30%
from 22 at 06 UTC to 22 at 07 UTC
Visibility: 3000 m
Becoming
from 22 at 08 UTC to 22 at 10 UTC
Wind 10 kt from the South/Southwest
Broken clouds at a height of 1400 ft

TAF: DNIB 212150Z 2200/2306 VRB02KT 8000 FEW011 TEMPO 2205/2208 5000 BR PROB30 2206/2207 3000 BECMG 2208/2210 21010KT BKN014

Weather observations and forecasts of more than 4000 airports (METAR and TAF reports).

The available stations are represented by yellow and red dots on the map.

Hover mouse over dot to see the name of the station.

Then click to see weather observations and forecasts.

To change the map : click on the green buttons with a black cross to zoom in, on the green button with a dash to zoom out, or on the green arrows for adjacent maps.


METAR-TAF: